sensor_id;sensor_type;location;lat;lon;timestamp;temperature;humidity
9383;DHT22;4731;49.708;10.816;2023-06-26T00:01:08;19.80;99.90
9383;DHT22;4731;49.708;10.816;2023-06-26T00:03:35;18.60;99.90
9383;DHT22;4731;49.708;10.816;2023-06-26T00:06:01;18.50;99.90
9383;DHT22;4731;49.708;10.816;2023-06-26T00:08:28;20.00;99.90
9383;DHT22;4731;49.708;10.816;2023-06-26T00:10:55;18.40;99.90
9383;DHT22;4731;49.708;10.816;2023-06-26T00:13:24;18.30;99.90
9383;DHT22;4731;49.708;10.816;2023-06-26T00:15:51;18.40;99.90
9383;DHT22;4731;49.708;10.816;2023-06-26T00:18:19;20.30;99.90
9383;DHT22;4731;49.708;10.816;2023-06-26T00:20:46;19.50;99.90
9383;DHT22;4731;49.708;10.816;2023-06-26T00:23:13;18.40;99.90
9383;DHT22;4731;49.708;10.816;2023-06-26T00:25:43;18.30;99.90
9383;DHT22;4731;49.708;10.816;2023-06-26T00:28:10;18.20;99.90
9383;DHT22;4731;49.708;10.816;2023-06-26T00:30:36;18.70;99.90
9383;DHT22;4731;49.708;10.816;2023-06-26T00:33:03;18.10;99.90
9383;DHT22;4731;49.708;10.816;2023-06-26T00:35:31;18.10;99.90
9383;DHT22;4731;49.708;10.816;2023-06-26T00:37:58;18.90;99.90
9383;DHT22;4731;49.708;10.816;2023-06-26T00:40:24;21.20;99.90
9383;DHT22;4731;49.708;10.816;2023-06-26T00:42:52;18.10;99.90
9383;DHT22;4731;49.708;10.816;2023-06-26T00:45:19;18.10;99.90
9383;DHT22;4731;49.708;10.816;2023-06-26T00:47:46;18.00;99.90
9383;DHT22;4731;49.708;10.816;2023-06-26T00:50:13;18.10;99.90
9383;DHT22;4731;49.708;10.816;2023-06-26T00:52:42;18.00;99.90
9383;DHT22;4731;49.708;10.816;2023-06-26T00:55:09;17.90;99.90
9383;DHT22;4731;49.708;10.816;2023-06-26T00:57:37;17.90;99.90
9383;DHT22;4731;49.708;10.816;2023-06-26T01:00:04;17.80;99.90
9383;DHT22;4731;49.708;10.816;2023-06-26T01:02:31;17.80;99.90
9383;DHT22;4731;49.708;10.816;2023-06-26T01:05:00;17.70;99.90
9383;DHT22;4731;49.708;10.816;2023-06-26T01:07:28;17.70;99.90
9383;DHT22;4731;49.708;10.816;2023-06-26T01:09:59;17.60;99.90
9383;DHT22;4731;49.708;10.816;2023-06-26T01:12:25;17.60;99.90
9383;DHT22;4731;49.708;10.816;2023-06-26T01:14:52;17.70;99.90
9383;DHT22;4731;49.708;10.816;2023-06-26T01:17:19;17.80;99.90
9383;DHT22;4731;49.708;10.816;2023-06-26T01:19:46;17.50;99.90
9383;DHT22;4731;49.708;10.816;2023-06-26T01:22:20;17.40;99.90
9383;DHT22;4731;49.708;10.816;2023-06-26T01:25:01;17.30;99.90
9383;DHT22;4731;49.708;10.816;2023-06-26T01:27:30;17.40;99.90
9383;DHT22;4731;49.708;10.816;2023-06-26T01:30:01;17.20;99.90
9383;DHT22;4731;49.708;10.816;2023-06-26T01:32:29;17.30;99.90
9383;DHT22;4731;49.708;10.816;2023-06-26T01:34:57;17.30;99.90
9383;DHT22;4731;49.708;10.816;2023-06-26T01:37:24;17.20;99.90
9383;DHT22;4731;49.708;10.816;2023-06-26T01:39:51;19.70;99.90
9383;DHT22;4731;49.708;10.816;2023-06-26T01:42:18;17.20;99.90
9383;DHT22;4731;49.708;10.816;2023-06-26T01:44:47;17.20;99.90
9383;DHT22;4731;49.708;10.816;2023-06-26T01:47:16;18.20;99.90
9383;DHT22;4731;49.708;10.816;2023-06-26T01:49:48;17.30;99.90
9383;DHT22;4731;49.708;10.816;2023-06-26T01:52:20;17.20;99.90
9383;DHT22;4731;49.708;10.816;2023-06-26T01:54:57;17.20;99.90
9383;DHT22;4731;49.708;10.816;2023-06-26T01:57:26;17.20;99.90
9383;DHT22;4731;49.708;10.816;2023-06-26T01:59:55;18.00;99.90
9383;DHT22;4731;49.708;10.816;2023-06-26T02:02:23;17.10;99.90
9383;DHT22;4731;49.708;10.816;2023-06-26T02:04:51;17.10;99.90
9383;DHT22;4731;49.708;10.816;2023-06-26T02:07:18;17.20;99.90
9383;DHT22;4731;49.708;10.816;2023-06-26T02:09:45;17.10;99.90
9383;DHT22;4731;49.708;10.816;2023-06-26T02:12:11;19.80;99.90
9383;DHT22;4731;49.708;10.816;2023-06-26T02:14:38;17.00;99.90
9383;DHT22;4731;49.708;10.816;2023-06-26T02:17:06;17.00;99.90
9383;DHT22;4731;49.708;10.816;2023-06-26T02:19:34;16.90;99.90
9383;DHT22;4731;49.708;10.816;2023-06-26T02:22:01;16.90;99.90
9383;DHT22;4731;49.708;10.816;2023-06-26T02:24:28;17.00;99.90
9383;DHT22;4731;49.708;10.816;2023-06-26T02:26:55;16.80;99.90
9383;DHT22;4731;49.708;10.816;2023-06-26T02:29:22;16.80;99.90
9383;DHT22;4731;49.708;10.816;2023-06-26T02:31:49;17.20;99.90
9383;DHT22;4731;49.708;10.816;2023-06-26T02:34:17;16.90;99.90
9383;DHT22;4731;49.708;10.816;2023-06-26T02:36:44;16.70;99.90
9383;DHT22;4731;49.708;10.816;2023-06-26T02:39:11;16.70;99.90
9383;DHT22;4731;49.708;10.816;2023-06-26T02:41:37;16.70;99.90
9383;DHT22;4731;49.708;10.816;2023-06-26T02:44:04;17.00;99.90
9383;DHT22;4731;49.708;10.816;2023-06-26T02:46:31;18.10;99.90
9383;DHT22;4731;49.708;10.816;2023-06-26T02:48:59;16.70;99.90
9383;DHT22;4731;49.708;10.816;2023-06-26T02:51:27;16.60;99.90
9383;DHT22;4731;49.708;10.816;2023-06-26T02:53:54;16.60;99.90
9383;DHT22;4731;49.708;10.816;2023-06-26T02:56:20;16.60;99.90
9383;DHT22;4731;49.708;10.816;2023-06-26T02:58:47;16.90;99.90
9383;DHT22;4731;49.708;10.816;2023-06-26T03:01:14;16.70;99.90
9383;DHT22;4731;49.708;10.816;2023-06-26T03:03:41;16.50;99.90
9383;DHT22;4731;49.708;10.816;2023-06-26T03:06:08;16.60;99.90
9383;DHT22;4731;49.708;10.816;2023-06-26T03:08:37;17.30;99.90
9383;DHT22;4731;49.708;10.816;2023-06-26T03:11:04;16.50;99.90
9383;DHT22;4731;49.708;10.816;2023-06-26T03:13:31;18.30;99.90
9383;DHT22;4731;49.708;10.816;2023-06-26T03:15:58;16.50;99.90
9383;DHT22;4731;49.708;10.816;2023-06-26T03:18:24;16.80;99.90
9383;DHT22;4731;49.708;10.816;2023-06-26T03:20:51;16.50;99.90
9383;DHT22;4731;49.708;10.816;2023-06-26T03:23:19;16.70;99.90
9383;DHT22;4731;49.708;10.816;2023-06-26T03:25:47;17.80;99.90
9383;DHT22;4731;49.708;10.816;2023-06-26T03:28:14;16.30;99.90
9383;DHT22;4731;49.708;10.816;2023-06-26T03:30:41;17.50;99.90
9383;DHT22;4731;49.708;10.816;2023-06-26T03:33:08;16.40;99.90
9383;DHT22;4731;49.708;10.816;2023-06-26T03:35:34;16.30;99.90
9383;DHT22;4731;49.708;10.816;2023-06-26T03:38:01;18.80;99.90
9383;DHT22;4731;49.708;10.816;2023-06-26T03:40:28;16.90;99.90
9383;DHT22;4731;49.708;10.816;2023-06-26T03:42:56;16.50;99.90
9383;DHT22;4731;49.708;10.816;2023-06-26T03:47:50;16.50;99.90
9383;DHT22;4731;49.708;10.816;2023-06-26T03:50:17;16.50;99.90
9383;DHT22;4731;49.708;10.816;2023-06-26T03:52:44;16.40;99.90
9383;DHT22;4731;49.708;10.816;2023-06-26T03:55:11;16.40;99.90
9383;DHT22;4731;49.708;10.816;2023-06-26T03:57:38;17.30;99.90
9383;DHT22;4731;49.708;10.816;2023-06-26T04:00:08;16.50;99.90
9383;DHT22;4731;49.708;10.816;2023-06-26T04:02:37;16.40;99.90
9383;DHT22;4731;49.708;10.816;2023-06-26T04:05:04;16.50;99.90
9383;DHT22;4731;49.708;10.816;2023-06-26T04:07:30;16.60;99.90
9383;DHT22;4731;49.708;10.816;2023-06-26T04:09:57;16.70;99.90
9383;DHT22;4731;49.708;10.816;2023-06-26T04:12:24;19.90;99.90
9383;DHT22;4731;49.708;10.816;2023-06-26T04:14:52;16.90;99.90
9383;DHT22;4731;49.708;10.816;2023-06-26T04:17:20;16.90;99.90
9383;DHT22;4731;49.708;10.816;2023-06-26T04:19:47;17.00;99.90
9383;DHT22;4731;49.708;10.816;2023-06-26T04:22:14;19.90;99.90
9383;DHT22;4731;49.708;10.816;2023-06-26T04:24:40;17.20;99.90
9383;DHT22;4731;49.708;10.816;2023-06-26T04:27:07;17.30;99.90
9383;DHT22;4731;49.708;10.816;2023-06-26T04:29:34;19.50;99.90
9383;DHT22;4731;49.708;10.816;2023-06-26T04:32:01;17.20;99.90
9383;DHT22;4731;49.708;10.816;2023-06-26T04:34:30;17.20;99.90
9383;DHT22;4731;49.708;10.816;2023-06-26T04:36:58;17.30;99.90
9383;DHT22;4731;49.708;10.816;2023-06-26T04:39:24;19.50;99.90
9383;DHT22;4731;49.708;10.816;2023-06-26T04:41:51;17.30;99.90
9383;DHT22;4731;49.708;10.816;2023-06-26T04:44:18;17.50;99.90
9383;DHT22;4731;49.708;10.816;2023-06-26T04:46:45;19.10;99.90
9383;DHT22;4731;49.708;10.816;2023-06-26T04:49:12;17.60;99.90
9383;DHT22;4731;49.708;10.816;2023-06-26T04:51:40;17.80;99.90
9383;DHT22;4731;49.708;10.816;2023-06-26T04:54:07;17.70;99.90
9383;DHT22;4731;49.708;10.816;2023-06-26T04:56:34;18.30;99.90
9383;DHT22;4731;49.708;10.816;2023-06-26T04:59:01;17.90;99.90
9383;DHT22;4731;49.708;10.816;2023-06-26T05:01:28;17.90;99.90
9383;DHT22;4731;49.708;10.816;2023-06-26T05:03:55;18.20;99.90
9383;DHT22;4731;49.708;10.816;2023-06-26T05:06:22;20.30;99.90
9383;DHT22;4731;49.708;10.816;2023-06-26T05:08:50;19.80;99.90
9383;DHT22;4731;49.708;10.816;2023-06-26T05:11:17;18.30;99.90
9383;DHT22;4731;49.708;10.816;2023-06-26T05:13:44;18.40;99.90
9383;DHT22;4731;49.708;10.816;2023-06-26T05:16:10;18.30;99.90
9383;DHT22;4731;49.708;10.816;2023-06-26T05:18:37;18.30;99.90
9383;DHT22;4731;49.708;10.816;2023-06-26T05:21:05;18.50;99.90
9383;DHT22;4731;49.708;10.816;2023-06-26T05:23:32;18.50;99.90
9383;DHT22;4731;49.708;10.816;2023-06-26T05:26:02;18.70;99.90
9383;DHT22;4731;49.708;10.816;2023-06-26T05:28:30;18.80;99.90
9383;DHT22;4731;49.708;10.816;2023-06-26T05:30:58;18.80;99.90
9383;DHT22;4731;49.708;10.816;2023-06-26T05:33:26;19.00;99.90
9383;DHT22;4731;49.708;10.816;2023-06-26T05:35:53;19.10;99.90
9383;DHT22;4731;49.708;10.816;2023-06-26T05:38:21;19.10;99.90
9383;DHT22;4731;49.708;10.816;2023-06-26T05:40:48;19.10;99.90
9383;DHT22;4731;49.708;10.816;2023-06-26T05:45:47;19.20;99.90
9383;DHT22;4731;49.708;10.816;2023-06-26T05:48:14;20.80;99.90
9383;DHT22;4731;49.708;10.816;2023-06-26T05:50:42;19.50;99.90
9383;DHT22;4731;49.708;10.816;2023-06-26T05:53:09;19.50;99.90
9383;DHT22;4731;49.708;10.816;2023-06-26T05:55:37;19.80;99.90
9383;DHT22;4731;49.708;10.816;2023-06-26T05:58:05;19.90;99.90
9383;DHT22;4731;49.708;10.816;2023-06-26T06:03:01;20.10;99.90
9383;DHT22;4731;49.708;10.816;2023-06-26T06:05:28;20.30;99.90
9383;DHT22;4731;49.708;10.816;2023-06-26T06:07:56;20.30;99.90
9383;DHT22;4731;49.708;10.816;2023-06-26T06:10:23;21.80;99.90
9383;DHT22;4731;49.708;10.816;2023-06-26T06:12:50;20.40;99.90
9383;DHT22;4731;49.708;10.816;2023-06-26T06:15:17;21.70;99.90
9383;DHT22;4731;49.708;10.816;2023-06-26T06:17:45;20.70;99.90
9383;DHT22;4731;49.708;10.816;2023-06-26T06:20:12;21.00;99.90
9383;DHT22;4731;49.708;10.816;2023-06-26T06:22:39;22.40;99.90
9383;DHT22;4731;49.708;10.816;2023-06-26T06:25:06;21.50;99.90
9383;DHT22;4731;49.708;10.816;2023-06-26T06:27:33;21.70;99.90
9383;DHT22;4731;49.708;10.816;2023-06-26T06:30:00;21.80;99.90
9383;DHT22;4731;49.708;10.816;2023-06-26T06:32:27;21.80;99.90
9383;DHT22;4731;49.708;10.816;2023-06-26T06:34:55;22.40;99.90
9383;DHT22;4731;49.708;10.816;2023-06-26T06:37:22;21.90;99.90
9383;DHT22;4731;49.708;10.816;2023-06-26T06:39:49;22.40;99.90
9383;DHT22;4731;49.708;10.816;2023-06-26T06:42:16;22.70;99.90
9383;DHT22;4731;49.708;10.816;2023-06-26T06:44:43;22.90;99.90
9383;DHT22;4731;49.708;10.816;2023-06-26T06:47:10;22.60;99.90
9383;DHT22;4731;49.708;10.816;2023-06-26T06:49:37;22.60;99.90
9383;DHT22;4731;49.708;10.816;2023-06-26T06:52:06;23.10;99.90
9383;DHT22;4731;49.708;10.816;2023-06-26T06:54:51;23.20;99.90
9383;DHT22;4731;49.708;10.816;2023-06-26T06:57:18;23.40;99.90
9383;DHT22;4731;49.708;10.816;2023-06-26T06:59:45;23.60;99.90
9383;DHT22;4731;49.708;10.816;2023-06-26T07:02:12;24.00;99.90
9383;DHT22;4731;49.708;10.816;2023-06-26T07:04:39;24.00;99.90
9383;DHT22;4731;49.708;10.816;2023-06-26T07:07:08;24.50;99.90
9383;DHT22;4731;49.708;10.816;2023-06-26T07:09:35;25.60;99.90
9383;DHT22;4731;49.708;10.816;2023-06-26T07:12:02;24.40;99.90
9383;DHT22;4731;49.708;10.816;2023-06-26T07:14:29;24.90;99.90
9383;DHT22;4731;49.708;10.816;2023-06-26T07:16:56;24.60;99.90
9383;DHT22;4731;49.708;10.816;2023-06-26T07:19:23;25.00;99.90
9383;DHT22;4731;49.708;10.816;2023-06-26T07:21:50;25.50;99.90
9383;DHT22;4731;49.708;10.816;2023-06-26T07:24:19;26.10;99.90
9383;DHT22;4731;49.708;10.816;2023-06-26T07:26:46;26.10;99.90
9383;DHT22;4731;49.708;10.816;2023-06-26T07:29:12;26.50;99.90
9383;DHT22;4731;49.708;10.816;2023-06-26T07:31:39;26.80;99.90
9383;DHT22;4731;49.708;10.816;2023-06-26T07:34:06;26.60;99.90
9383;DHT22;4731;49.708;10.816;2023-06-26T07:36:33;26.70;99.90
9383;DHT22;4731;49.708;10.816;2023-06-26T07:39:00;26.50;99.90
9383;DHT22;4731;49.708;10.816;2023-06-26T07:41:28;26.40;99.90
9383;DHT22;4731;49.708;10.816;2023-06-26T07:43:57;26.40;99.90
9383;DHT22;4731;49.708;10.816;2023-06-26T07:46:24;26.80;99.90
9383;DHT22;4731;49.708;10.816;2023-06-26T07:48:51;27.30;99.90
9383;DHT22;4731;49.708;10.816;2023-06-26T07:51:18;27.50;99.90
9383;DHT22;4731;49.708;10.816;2023-06-26T07:53:45;27.90;99.90
9383;DHT22;4731;49.708;10.816;2023-06-26T07:56:11;28.20;99.90
9383;DHT22;4731;49.708;10.816;2023-06-26T07:58:40;28.50;99.90
9383;DHT22;4731;49.708;10.816;2023-06-26T08:01:07;29.70;99.90
9383;DHT22;4731;49.708;10.816;2023-06-26T08:03:34;29.00;99.90
9383;DHT22;4731;49.708;10.816;2023-06-26T08:06:01;28.90;99.90
9383;DHT22;4731;49.708;10.816;2023-06-26T08:08:28;29.10;99.90
9383;DHT22;4731;49.708;10.816;2023-06-26T08:10:55;29.50;99.90
9383;DHT22;4731;49.708;10.816;2023-06-26T08:13:22;29.60;99.90
9383;DHT22;4731;49.708;10.816;2023-06-26T08:15:50;29.80;99.90
9383;DHT22;4731;49.708;10.816;2023-06-26T08:18:18;30.00;99.90
9383;DHT22;4731;49.708;10.816;2023-06-26T08:20:45;29.80;99.90
9383;DHT22;4731;49.708;10.816;2023-06-26T08:23:11;30.00;99.90
9383;DHT22;4731;49.708;10.816;2023-06-26T08:25:38;30.20;99.90
9383;DHT22;4731;49.708;10.816;2023-06-26T08:28:05;30.30;99.90
9383;DHT22;4731;49.708;10.816;2023-06-26T08:30:32;30.30;99.90
9383;DHT22;4731;49.708;10.816;2023-06-26T08:33:00;30.40;99.90
9383;DHT22;4731;49.708;10.816;2023-06-26T08:35:27;30.50;99.90
9383;DHT22;4731;49.708;10.816;2023-06-26T08:37:54;30.90;99.90
9383;DHT22;4731;49.708;10.816;2023-06-26T08:40:21;30.70;99.90
9383;DHT22;4731;49.708;10.816;2023-06-26T08:42:48;30.70;99.90
9383;DHT22;4731;49.708;10.816;2023-06-26T08:45:18;30.50;99.90
9383;DHT22;4731;49.708;10.816;2023-06-26T08:47:45;30.80;99.90
9383;DHT22;4731;49.708;10.816;2023-06-26T08:50:17;31.00;99.90
9383;DHT22;4731;49.708;10.816;2023-06-26T08:52:51;31.20;99.90
9383;DHT22;4731;49.708;10.816;2023-06-26T08:55:20;31.30;99.90
9383;DHT22;4731;49.708;10.816;2023-06-26T08:57:50;31.50;99.90
9383;DHT22;4731;49.708;10.816;2023-06-26T09:00:17;31.40;99.90
9383;DHT22;4731;49.708;10.816;2023-06-26T09:02:46;31.80;99.90
9383;DHT22;4731;49.708;10.816;2023-06-26T09:05:12;32.10;99.90
9383;DHT22;4731;49.708;10.816;2023-06-26T09:07:41;32.10;99.90
9383;DHT22;4731;49.708;10.816;2023-06-26T09:10:08;32.40;99.90
9383;DHT22;4731;49.708;10.816;2023-06-26T09:12:36;32.80;99.90
9383;DHT22;4731;49.708;10.816;2023-06-26T09:15:05;32.70;99.90
9383;DHT22;4731;49.708;10.816;2023-06-26T09:17:39;33.20;99.90
9383;DHT22;4731;49.708;10.816;2023-06-26T09:20:07;33.10;99.90
9383;DHT22;4731;49.708;10.816;2023-06-26T09:22:37;33.10;99.90
9383;DHT22;4731;49.708;10.816;2023-06-26T09:25:07;32.80;98.80
9383;DHT22;4731;49.708;10.816;2023-06-26T09:27:34;31.90;99.90
9383;DHT22;4731;49.708;10.816;2023-06-26T09:30:01;32.20;99.90
9383;DHT22;4731;49.708;10.816;2023-06-26T09:32:29;32.50;99.90
9383;DHT22;4731;49.708;10.816;2023-06-26T09:34:55;33.00;99.90
9383;DHT22;4731;49.708;10.816;2023-06-26T09:37:23;32.90;99.50
9383;DHT22;4731;49.708;10.816;2023-06-26T09:39:51;32.90;99.00
9383;DHT22;4731;49.708;10.816;2023-06-26T09:42:22;32.70;98.00
9383;DHT22;4731;49.708;10.816;2023-06-26T09:44:50;32.30;99.00
9383;DHT22;4731;49.708;10.816;2023-06-26T09:47:18;33.00;99.90
9383;DHT22;4731;49.708;10.816;2023-06-26T09:49:46;33.00;99.90
9383;DHT22;4731;49.708;10.816;2023-06-26T09:52:14;33.20;98.20
9383;DHT22;4731;49.708;10.816;2023-06-26T09:54:41;33.50;97.50
9383;DHT22;4731;49.708;10.816;2023-06-26T09:57:11;33.80;97.90
9383;DHT22;4731;49.708;10.816;2023-06-26T09:59:40;33.90;96.50
9383;DHT22;4731;49.708;10.816;2023-06-26T10:02:07;33.90;95.10
9383;DHT22;4731;49.708;10.816;2023-06-26T10:04:35;34.00;95.20
9383;DHT22;4731;49.708;10.816;2023-06-26T10:07:05;34.00;94.10
9383;DHT22;4731;49.708;10.816;2023-06-26T10:09:33;34.10;95.70
9383;DHT22;4731;49.708;10.816;2023-06-26T10:12:05;34.50;93.40
9383;DHT22;4731;49.708;10.816;2023-06-26T10:14:34;34.00;92.00
9383;DHT22;4731;49.708;10.816;2023-06-26T10:17:08;34.20;92.30
9383;DHT22;4731;49.708;10.816;2023-06-26T10:19:38;33.80;91.00
9383;DHT22;4731;49.708;10.816;2023-06-26T10:22:07;33.70;92.10
9383;DHT22;4731;49.708;10.816;2023-06-26T10:24:35;33.60;90.70
9383;DHT22;4731;49.708;10.816;2023-06-26T10:27:07;33.80;88.90
9383;DHT22;4731;49.708;10.816;2023-06-26T10:29:35;33.80;91.40
9383;DHT22;4731;49.708;10.816;2023-06-26T10:32:05;33.80;89.10
9383;DHT22;4731;49.708;10.816;2023-06-26T10:37:00;34.10;84.00
9383;DHT22;4731;49.708;10.816;2023-06-26T10:41:55;34.10;82.70
9383;DHT22;4731;49.708;10.816;2023-06-26T10:44:40;33.80;83.80
9383;DHT22;4731;49.708;10.816;2023-06-26T10:49:37;33.90;82.50
9383;DHT22;4731;49.708;10.816;2023-06-26T10:52:05;34.10;82.50
9383;DHT22;4731;49.708;10.816;2023-06-26T10:54:32;33.90;81.40
9383;DHT22;4731;49.708;10.816;2023-06-26T10:59:27;33.50;83.60
9383;DHT22;4731;49.708;10.816;2023-06-26T11:01:55;33.40;84.30
9383;DHT22;4731;49.708;10.816;2023-06-26T11:04:37;33.30;85.00
9383;DHT22;4731;49.708;10.816;2023-06-26T11:07:19;33.60;89.50
9383;DHT22;4731;49.708;10.816;2023-06-26T11:09:56;33.50;85.90
9383;DHT22;4731;49.708;10.816;2023-06-26T11:12:40;33.30;85.20
9383;DHT22;4731;49.708;10.816;2023-06-26T11:15:08;33.70;86.90
9383;DHT22;4731;49.708;10.816;2023-06-26T11:17:36;33.90;88.80
9383;DHT22;4731;49.708;10.816;2023-06-26T11:20:06;33.80;86.20
9383;DHT22;4731;49.708;10.816;2023-06-26T11:22:35;33.70;86.60
9383;DHT22;4731;49.708;10.816;2023-06-26T11:25:03;33.90;87.50
9383;DHT22;4731;49.708;10.816;2023-06-26T11:27:32;33.90;82.90
9383;DHT22;4731;49.708;10.816;2023-06-26T11:30:03;34.20;84.10
9383;DHT22;4731;49.708;10.816;2023-06-26T11:32:30;34.10;84.10
9383;DHT22;4731;49.708;10.816;2023-06-26T11:34:58;33.80;82.50
9383;DHT22;4731;49.708;10.816;2023-06-26T11:37:27;33.80;82.50
9383;DHT22;4731;49.708;10.816;2023-06-26T11:39:53;34.10;83.60
9383;DHT22;4731;49.708;10.816;2023-06-26T11:42:21;34.20;82.20
9383;DHT22;4731;49.708;10.816;2023-06-26T11:44:48;34.20;80.30
9383;DHT22;4731;49.708;10.816;2023-06-26T11:47:15;34.20;82.00
9383;DHT22;4731;49.708;10.816;2023-06-26T11:49:42;34.40;80.00
9383;DHT22;4731;49.708;10.816;2023-06-26T11:52:09;34.30;81.60
9383;DHT22;4731;49.708;10.816;2023-06-26T11:54:37;34.40;80.90
9383;DHT22;4731;49.708;10.816;2023-06-26T11:59:34;34.80;81.20
9383;DHT22;4731;49.708;10.816;2023-06-26T12:02:05;35.10;81.00
9383;DHT22;4731;49.708;10.816;2023-06-26T12:04:32;35.30;81.00
9383;DHT22;4731;49.708;10.816;2023-06-26T12:06:59;35.30;78.50
9383;DHT22;4731;49.708;10.816;2023-06-26T12:09:29;34.90;79.40
9383;DHT22;4731;49.708;10.816;2023-06-26T12:12:00;34.80;79.80
9383;DHT22;4731;49.708;10.816;2023-06-26T12:14:27;34.80;79.90
9383;DHT22;4731;49.708;10.816;2023-06-26T12:19:24;34.60;80.00
9383;DHT22;4731;49.708;10.816;2023-06-26T12:21:52;34.50;82.20
9383;DHT22;4731;49.708;10.816;2023-06-26T12:24:20;34.60;80.10
9383;DHT22;4731;49.708;10.816;2023-06-26T12:26:50;34.50;81.90
9383;DHT22;4731;49.708;10.816;2023-06-26T12:29:21;36.10;83.40
9383;DHT22;4731;49.708;10.816;2023-06-26T12:31:52;34.20;81.50
9383;DHT22;4731;49.708;10.816;2023-06-26T12:34:20;33.90;81.70
9383;DHT22;4731;49.708;10.816;2023-06-26T12:36:48;33.80;82.50
9383;DHT22;4731;49.708;10.816;2023-06-26T12:39:16;33.90;82.70
9383;DHT22;4731;49.708;10.816;2023-06-26T12:41:48;34.10;84.20
9383;DHT22;4731;49.708;10.816;2023-06-26T12:44:29;34.50;86.10
9383;DHT22;4731;49.708;10.816;2023-06-26T12:46:58;34.70;83.40
9383;DHT22;4731;49.708;10.816;2023-06-26T12:49:31;34.80;84.30
9383;DHT22;4731;49.708;10.816;2023-06-26T12:54:26;34.80;83.20
9383;DHT22;4731;49.708;10.816;2023-06-26T12:56:53;34.40;83.90
9383;DHT22;4731;49.708;10.816;2023-06-26T12:59:20;34.50;85.50
9383;DHT22;4731;49.708;10.816;2023-06-26T13:01:48;34.40;84.30
9383;DHT22;4731;49.708;10.816;2023-06-26T13:04:15;34.10;84.20
9383;DHT22;4731;49.708;10.816;2023-06-26T13:06:42;33.60;85.30
9383;DHT22;4731;49.708;10.816;2023-06-26T13:09:09;33.10;87.40
9383;DHT22;4731;49.708;10.816;2023-06-26T13:11:36;32.80;88.00
9383;DHT22;4731;49.708;10.816;2023-06-26T13:14:04;32.30;89.70
9383;DHT22;4731;49.708;10.816;2023-06-26T13:19:00;32.00;92.10
9383;DHT22;4731;49.708;10.816;2023-06-26T13:21:29;32.00;92.20
9383;DHT22;4731;49.708;10.816;2023-06-26T13:23:56;31.80;93.40
9383;DHT22;4731;49.708;10.816;2023-06-26T13:28:52;32.10;94.50
9383;DHT22;4731;49.708;10.816;2023-06-26T13:36:16;32.70;94.40
9383;DHT22;4731;49.708;10.816;2023-06-26T13:38:43;32.90;95.00
9383;DHT22;4731;49.708;10.816;2023-06-26T13:41:10;32.60;94.70
9383;DHT22;4731;49.708;10.816;2023-06-26T13:46:06;31.90;96.20
9383;DHT22;4731;49.708;10.816;2023-06-26T13:48:33;32.20;97.80
9383;DHT22;4731;49.708;10.816;2023-06-26T13:51:00;32.20;97.70
9383;DHT22;4731;49.708;10.816;2023-06-26T13:53:29;32.40;97.20
9383;DHT22;4731;49.708;10.816;2023-06-26T13:55:57;32.60;95.80
9383;DHT22;4731;49.708;10.816;2023-06-26T13:58:42;32.50;96.50
9383;DHT22;4731;49.708;10.816;2023-06-26T14:01:09;32.60;96.50
9383;DHT22;4731;49.708;10.816;2023-06-26T14:03:35;32.50;96.30
9383;DHT22;4731;49.708;10.816;2023-06-26T14:06:02;34.70;97.30
9383;DHT22;4731;49.708;10.816;2023-06-26T14:10:59;32.80;95.60
9383;DHT22;4731;49.708;10.816;2023-06-26T14:15:53;32.20;97.90
9383;DHT22;4731;49.708;10.816;2023-06-26T14:18:21;32.10;97.70
9383;DHT22;4731;49.708;10.816;2023-06-26T14:20:51;32.20;97.30
9383;DHT22;4731;49.708;10.816;2023-06-26T14:23:19;32.00;96.30
9383;DHT22;4731;49.708;10.816;2023-06-26T14:25:50;32.00;97.20
9383;DHT22;4731;49.708;10.816;2023-06-26T14:28:17;32.10;97.70
9383;DHT22;4731;49.708;10.816;2023-06-26T14:33:11;31.90;98.00
9383;DHT22;4731;49.708;10.816;2023-06-26T14:35:38;31.80;99.90
9383;DHT22;4731;49.708;10.816;2023-06-26T14:38:04;31.80;98.90
9383;DHT22;4731;49.708;10.816;2023-06-26T14:40:31;31.90;99.90
9383;DHT22;4731;49.708;10.816;2023-06-26T14:47:53;31.20;99.90
9383;DHT22;4731;49.708;10.816;2023-06-26T14:50:20;31.40;99.90
9383;DHT22;4731;49.708;10.816;2023-06-26T14:52:47;30.70;99.90
9383;DHT22;4731;49.708;10.816;2023-06-26T14:55:14;30.60;99.90
9383;DHT22;4731;49.708;10.816;2023-06-26T14:57:40;30.30;99.90
9383;DHT22;4731;49.708;10.816;2023-06-26T15:00:10;30.30;99.90
9383;DHT22;4731;49.708;10.816;2023-06-26T15:02:37;30.10;99.90
9383;DHT22;4731;49.708;10.816;2023-06-26T15:05:04;30.10;99.90
9383;DHT22;4731;49.708;10.816;2023-06-26T15:07:31;29.90;99.90
9383;DHT22;4731;49.708;10.816;2023-06-26T15:10:00;29.90;99.90
9383;DHT22;4731;49.708;10.816;2023-06-26T15:12:27;29.80;99.90
9383;DHT22;4731;49.708;10.816;2023-06-26T15:14:54;29.60;99.90
9383;DHT22;4731;49.708;10.816;2023-06-26T15:17:22;29.60;99.90
9383;DHT22;4731;49.708;10.816;2023-06-26T15:19:49;29.50;99.90
9383;DHT22;4731;49.708;10.816;2023-06-26T15:22:17;29.50;99.90
9383;DHT22;4731;49.708;10.816;2023-06-26T15:27:11;30.00;99.90
9383;DHT22;4731;49.708;10.816;2023-06-26T15:29:39;30.00;99.90
9383;DHT22;4731;49.708;10.816;2023-06-26T15:32:08;30.20;99.90
9383;DHT22;4731;49.708;10.816;2023-06-26T15:34:36;30.20;99.90
9383;DHT22;4731;49.708;10.816;2023-06-26T15:37:04;30.70;99.90
9383;DHT22;4731;49.708;10.816;2023-06-26T15:39:30;30.10;99.90
9383;DHT22;4731;49.708;10.816;2023-06-26T15:41:57;29.80;99.90
9383;DHT22;4731;49.708;10.816;2023-06-26T15:44:24;29.70;99.90
9383;DHT22;4731;49.708;10.816;2023-06-26T15:46:51;29.70;99.90
9383;DHT22;4731;49.708;10.816;2023-06-26T15:49:18;32.80;99.90
9383;DHT22;4731;49.708;10.816;2023-06-26T15:51:46;29.50;99.90
9383;DHT22;4731;49.708;10.816;2023-06-26T15:54:19;29.70;99.90
9383;DHT22;4731;49.708;10.816;2023-06-26T15:56:46;29.70;99.90
9383;DHT22;4731;49.708;10.816;2023-06-26T15:59:13;29.50;99.90
9383;DHT22;4731;49.708;10.816;2023-06-26T16:01:47;29.30;99.90
9383;DHT22;4731;49.708;10.816;2023-06-26T16:04:14;29.30;99.90
9383;DHT22;4731;49.708;10.816;2023-06-26T16:10:04;29.30;99.90
9383;DHT22;4731;49.708;10.816;2023-06-26T16:12:31;29.60;99.90
9383;DHT22;4731;49.708;10.816;2023-06-26T16:14:58;29.60;99.90
9383;DHT22;4731;49.708;10.816;2023-06-26T16:17:24;29.50;99.90
9383;DHT22;4731;49.708;10.816;2023-06-26T16:19:52;29.60;99.90
9383;DHT22;4731;49.708;10.816;2023-06-26T16:22:18;29.60;99.90
9383;DHT22;4731;49.708;10.816;2023-06-26T16:29:41;29.20;99.90
9383;DHT22;4731;49.708;10.816;2023-06-26T16:32:08;29.20;99.90
9383;DHT22;4731;49.708;10.816;2023-06-26T16:34:35;29.00;99.90
9383;DHT22;4731;49.708;10.816;2023-06-26T16:37:02;28.80;99.90
9383;DHT22;4731;49.708;10.816;2023-06-26T16:39:33;28.60;99.90
9383;DHT22;4731;49.708;10.816;2023-06-26T16:41:59;28.50;99.90
9383;DHT22;4731;49.708;10.816;2023-06-26T16:44:27;28.80;99.90
9383;DHT22;4731;49.708;10.816;2023-06-26T16:46:55;28.40;99.90
9383;DHT22;4731;49.708;10.816;2023-06-26T16:49:22;28.50;99.90